Time;durP1;ratioP1;P1;durP2;ratioP2;P2;SDS_P1;SDS_P2;PMS_P1;PMS_P2;Temp;Humidity;BMP_temperature;BMP_pressure;BME280_temperature;BME280_humidity;BME280_pressure;Samples;Min_cycle;Max_cycle;Signal;HPM_P1;HPM_P2
2023/01/31 00:00:08;;;;;;;;;;;19.90;79.50;;;;;;5056603;28;19915;-52
2023/01/31 00:02:34;;;;;;;;;;;19.90;79.70;;;;;;5074449;28;20220;-53
2023/01/31 00:04:59;;;;;;;;;;;20.00;79.40;;;;;;5074380;28;19904;-54
2023/01/31 00:07:25;;;;;;;;;;;20.00;79.60;;;;;;5074097;28;19905;-55
2023/01/31 00:09:50;;;;;;;;;;;20.10;79.00;;;;;;5056014;28;19912;-53
2023/01/31 00:12:16;;;;;;;;;;;20.20;79.10;;;;;;5056238;28;19911;-50
2023/01/31 00:14:41;;;;;;;;;;;20.20;79.10;;;;;;5074292;28;20343;-51
2023/01/31 00:17:07;;;;;;;;;;;20.20;78.90;;;;;;5073764;28;19924;-53
2023/01/31 00:19:32;;;;;;;;;;;20.20;79.10;;;;;;5074201;28;19985;-53
2023/01/31 00:21:58;;;;;;;;;;;20.30;79.10;;;;;;5073928;28;19904;-52
2023/01/31 00:24:23;;;;;;;;;;;20.30;78.80;;;;;;5056350;28;20243;-52
2023/01/31 00:26:55;;;;;;;;;;;20.30;78.70;;;;;;5056318;28;19905;-51
2023/01/31 00:29:21;;;;;;;;;;;20.20;78.80;;;;;;5074275;28;19904;-54
2023/01/31 00:31:46;;;;;;;;;;;20.20;79.00;;;;;;5056349;28;19908;-55
2023/01/31 00:34:12;;;;;;;;;;;20.20;78.80;;;;;;5074003;28;20007;-53
2023/01/31 00:36:37;;;;;;;;;;;20.10;79.10;;;;;;5073642;28;19909;-51
2023/01/31 00:39:04;;;;;;;;;;;20.10;79.30;;;;;;5074151;28;20326;-55
2023/01/31 00:41:29;;;;;;;;;;;20.10;79.30;;;;;;5056086;28;20258;-54
2023/01/31 00:43:55;;;;;;;;;;;20.10;78.90;;;;;;5073757;28;19919;-53
2023/01/31 00:46:21;;;;;;;;;;;20.10;79.00;;;;;;5055736;28;19911;-54
2023/01/31 00:48:47;;;;;;;;;;;20.10;79.00;;;;;;5055720;28;19904;-54
2023/01/31 00:51:12;;;;;;;;;;;20.20;78.90;;;;;;5073967;28;19957;-55
2023/01/31 00:53:38;;;;;;;;;;;20.20;79.00;;;;;;5055888;28;20050;-53
2023/01/31 00:56:06;;;;;;;;;;;20.30;78.80;;;;;;5073606;28;19905;-53
2023/01/31 00:58:31;;;;;;;;;;;20.30;78.70;;;;;;5073617;28;20310;-50
2023/01/31 01:01:03;;;;;;;;;;;20.40;78.70;;;;;;5073933;28;19915;-55
2023/01/31 01:03:29;;;;;;;;;;;20.40;78.60;;;;;;5073627;28;19904;-55
2023/01/31 01:05:54;;;;;;;;;;;20.50;78.50;;;;;;5055830;28;19911;-54
2023/01/31 01:08:20;;;;;;;;;;;20.50;78.50;;;;;;5073617;28;19904;-54
2023/01/31 01:10:45;;;;;;;;;;;20.50;78.60;;;;;;5073744;28;20339;-50
2023/01/31 01:13:11;;;;;;;;;;;20.40;78.70;;;;;;5055729;28;19912;-52
2023/01/31 01:15:38;;;;;;;;;;;20.40;78.90;;;;;;5055751;28;20298;-54
2023/01/31 01:18:03;;;;;;;;;;;20.30;79.00;;;;;;5073606;28;19981;-52
2023/01/31 01:20:28;;;;;;;;;;;20.20;79.20;;;;;;5073416;28;20406;-53
2023/01/31 01:22:54;;;;;;;;;;;20.20;79.20;;;;;;5073694;28;19995;-52
2023/01/31 01:25:19;;;;;;;;;;;20.20;79.30;;;;;;5058758;28;19905;-52
2023/01/31 01:27:45;;;;;;;;;;;20.20;79.20;;;;;;5077361;28;19904;-53
2023/01/31 01:30:10;;;;;;;;;;;20.40;78.90;;;;;;5059445;28;19905;-50
2023/01/31 01:32:36;;;;;;;;;;;20.40;78.80;;;;;;5059336;28;20232;-53
2023/01/31 01:35:02;;;;;;;;;;;20.50;78.50;;;;;;5077227;28;19909;-53
2023/01/31 01:37:29;;;;;;;;;;;20.60;78.40;;;;;;5058943;28;19928;-52
2023/01/31 01:39:54;;;;;;;;;;;20.60;78.40;;;;;;5077192;28;19904;-53
2023/01/31 01:42:21;;;;;;;;;;;20.60;78.40;;;;;;5077460;28;19950;-53
2023/01/31 01:44:53;;;;;;;;;;;20.60;78.20;;;;;;5076736;28;19904;-53
2023/01/31 01:47:18;;;;;;;;;;;20.60;78.50;;;;;;5076985;28;20150;-55
2023/01/31 01:49:45;;;;;;;;;;;20.50;78.60;;;;;;5076987;28;19955;-52
2023/01/31 01:52:12;;;;;;;;;;;20.40;78.80;;;;;;5076632;28;19905;-53
2023/01/31 01:54:42;;;;;;;;;;;20.40;79.20;;;;;;5076905;28;19912;-54
2023/01/31 01:57:09;;;;;;;;;;;20.30;79.30;;;;;;5058931;28;20278;-54
2023/01/31 01:59:48;;;;;;;;;;;20.30;79.40;;;;;;5076562;28;20327;-51
2023/01/31 02:02:14;;;;;;;;;;;20.30;79.30;;;;;;5076809;28;19905;-52
2023/01/31 02:04:41;;;;;;;;;;;20.30;79.50;;;;;;5076750;28;19930;-54
2023/01/31 02:07:07;;;;;;;;;;;20.30;79.50;;;;;;5076690;28;19904;-50
2023/01/31 02:09:45;;;;;;;;;;;20.40;79.10;;;;;;5076666;28;19946;-55
2023/01/31 02:12:10;;;;;;;;;;;20.40;78.80;;;;;;5076987;28;19905;-53
2023/01/31 02:14:36;;;;;;;;;;;20.50;78.50;;;;;;5076257;28;20254;-54
2023/01/31 02:17:01;;;;;;;;;;;20.60;78.40;;;;;;5076185;28;20343;-55
2023/01/31 02:19:39;;;;;;;;;;;20.70;78.00;;;;;;5076174;28;20255;-53
2023/01/31 02:22:12;;;;;;;;;;;20.80;77.80;;;;;;5058411;28;19950;-54
2023/01/31 02:24:45;;;;;;;;;;;20.80;77.90;;;;;;5058388;28;19909;-54
2023/01/31 02:27:22;;;;;;;;;;;20.80;77.80;;;;;;5058456;28;19912;-54
2023/01/31 02:29:51;;;;;;;;;;;20.70;78.30;;;;;;5076529;28;20362;-55
2023/01/31 02:32:16;;;;;;;;;;;20.60;78.10;;;;;;5058206;28;19969;-55
2023/01/31 02:34:41;;;;;;;;;;;20.60;78.30;;;;;;5058116;28;19999;-52
2023/01/31 02:37:16;;;;;;;;;;;20.60;78.70;;;;;;5073384;28;20347;-53
2023/01/31 02:39:42;;;;;;;;;;;20.50;78.70;;;;;;5058437;28;20243;-51
2023/01/31 02:42:14;;;;;;;;;;;20.50;78.50;;;;;;5058101;28;19915;-50
2023/01/31 02:44:58;;;;;;;;;;;20.40;78.80;;;;;;5076344;28;19910;-54
2023/01/31 02:47:32;;;;;;;;;;;20.40;79.20;;;;;;5076310;28;19905;-51
2023/01/31 02:50:02;;;;;;;;;;;20.40;79.10;;;;;;5058068;28;19951;-49
2023/01/31 02:52:31;;;;;;;;;;;20.40;79.20;;;;;;5075820;28;19908;-52
2023/01/31 02:57:50;;;;;;;;;;;20.40;79.50;;;;;;5075553;28;20370;-53
2023/01/31 03:00:16;;;;;;;;;;;20.40;78.90;;;;;;5075668;28;19915;-54
2023/01/31 03:02:41;;;;;;;;;;;20.40;78.90;;;;;;5057942;28;19905;-52
2023/01/31 03:05:10;;;;;;;;;;;20.40;78.60;;;;;;5075503;28;19908;-52
2023/01/31 03:07:36;;;;;;;;;;;20.50;78.80;;;;;;5075509;28;19992;-54
2023/01/31 03:10:05;;;;;;;;;;;20.50;78.90;;;;;;5075146;28;19904;-54
2023/01/31 03:12:30;;;;;;;;;;;20.50;78.80;;;;;;5075365;28;19904;-50
2023/01/31 03:15:05;;;;;;;;;;;20.50;78.70;;;;;;5075408;28;20232;-54
2023/01/31 03:17:53;;;;;;;;;;;20.50;78.70;;;;;;5074896;28;20006;-53
2023/01/31 03:20:22;;;;;;;;;;;20.50;79.00;;;;;;5049159;28;19908;-49
2023/01/31 03:22:57;;;;;;;;;;;20.50;78.90;;;;;;5074857;28;19935;-52
2023/01/31 03:25:25;;;;;;;;;;;20.50;79.00;;;;;;5057232;28;19904;-52
2023/01/31 03:27:54;;;;;;;;;;;20.50;79.00;;;;;;5074778;28;20287;-51
2023/01/31 03:30:22;;;;;;;;;;;20.50;79.10;;;;;;5075039;28;20354;-53
2023/01/31 03:32:50;;;;;;;;;;;20.50;78.60;;;;;;5074730;28;20295;-53
2023/01/31 03:35:16;;;;;;;;;;;20.50;78.30;;;;;;5074948;28;20343;-49
2023/01/31 03:37:46;;;;;;;;;;;20.50;78.90;;;;;;5074577;28;19916;-53
2023/01/31 03:40:16;;;;;;;;;;;20.50;79.00;;;;;;5074526;28;19911;-51
2023/01/31 03:42:57;;;;;;;;;;;20.40;78.80;;;;;;5074795;28;19912;-52
2023/01/31 03:45:29;;;;;;;;;;;20.40;78.80;;;;;;5074832;28;20326;-54
2023/01/31 03:47:55;;;;;;;;;;;20.40;78.80;;;;;;5073994;28;19909;-52
2023/01/31 03:50:33;;;;;;;;;;;20.40;78.80;;;;;;5074379;28;19904;-50
2023/01/31 03:53:04;;;;;;;;;;;20.40;78.20;;;;;;5074643;28;19911;-54
2023/01/31 03:55:32;;;;;;;;;;;20.50;78.50;;;;;;5075259;28;19927;-55
2023/01/31 03:57:58;;;;;;;;;;;20.50;78.50;;;;;;5074667;28;19978;-54
2023/01/31 04:00:25;;;;;;;;;;;20.50;78.10;;;;;;5074257;28;19915;-50
2023/01/31 04:02:54;;;;;;;;;;;20.60;78.20;;;;;;5074204;28;19908;-52
2023/01/31 04:05:22;;;;;;;;;;;20.60;76.80;;;;;;5074108;28;20018;-55
2023/01/31 04:07:47;;;;;;;;;;;20.60;75.90;;;;;;5074419;28;19917;-53
2023/01/31 04:10:17;;;;;;;;;;;20.60;78.30;;;;;;5056240;28;20280;-54
2023/01/31 04:12:43;;;;;;;;;;;20.60;78.30;;;;;;5074259;28;19911;-53
2023/01/31 04:15:09;;;;;;;;;;;20.60;78.60;;;;;;5074289;28;19995;-50
2023/01/31 04:17:34;;;;;;;;;;;20.60;78.70;;;;;;5056343;28;20243;-54
2023/01/31 04:20:00;;;;;;;;;;;20.60;78.50;;;;;;5073980;28;20330;-52
2023/01/31 04:22:25;;;;;;;;;;;20.60;77.90;;;;;;5074386;28;19905;-53
2023/01/31 04:24:51;;;;;;;;;;;20.50;78.60;;;;;;5074220;28;19996;-55
2023/01/31 04:27:16;;;;;;;;;;;20.40;79.10;;;;;;5074111;28;19904;-55
2023/01/31 04:29:42;;;;;;;;;;;20.40;79.20;;;;;;5073875;28;19904;-52
2023/01/31 04:32:07;;;;;;;;;;;20.40;79.20;;;;;;5073952;28;19908;-51
2023/01/31 04:34:33;;;;;;;;;;;20.40;79.30;;;;;;5073716;28;19909;-55
2023/01/31 04:36:58;;;;;;;;;;;20.40;79.10;;;;;;5073752;28;19909;-50
2023/01/31 04:39:24;;;;;;;;;;;20.40;79.20;;;;;;5074188;28;20292;-53
2023/01/31 04:41:49;;;;;;;;;;;20.40;79.10;;;;;;5074289;28;19905;-52
2023/01/31 04:44:15;;;;;;;;;;;20.40;78.30;;;;;;5073723;28;19958;-55
2023/01/31 04:46:41;;;;;;;;;;;20.40;78.80;;;;;;5055935;28;19911;-56
2023/01/31 04:49:06;;;;;;;;;;;20.40;78.90;;;;;;5073928;28;20247;-54
2023/01/31 04:51:32;;;;;;;;;;;20.40;78.90;;;;;;5073905;28;19908;-55
2023/01/31 04:53:57;;;;;;;;;;;20.50;78.80;;;;;;5055823;28;19908;-53
2023/01/31 04:56:23;;;;;;;;;;;20.60;78.40;;;;;;5055771;28;19912;-54
2023/01/31 04:58:48;;;;;;;;;;;20.60;78.30;;;;;;5074432;28;19913;-51
2023/01/31 05:01:14;;;;;;;;;;;20.60;78.50;;;;;;5077918;28;19905;-56
2023/01/31 05:03:39;;;;;;;;;;;20.70;78.30;;;;;;5077535;28;20030;-54
2023/01/31 05:06:05;;;;;;;;;;;20.60;78.60;;;;;;5077729;28;19905;-55
2023/01/31 05:08:30;;;;;;;;;;;20.60;78.70;;;;;;5077734;28;19908;-53
2023/01/31 05:11:00;;;;;;;;;;;20.60;79.10;;;;;;5077395;28;20315;-55
2023/01/31 05:13:25;;;;;;;;;;;20.50;79.10;;;;;;5077581;28;19904;-52
2023/01/31 05:15:51;;;;;;;;;;;20.50;78.90;;;;;;5077554;28;19904;-53
2023/01/31 05:18:17;;;;;;;;;;;20.50;79.10;;;;;;5077501;28;19916;-54
2023/01/31 05:20:42;;;;;;;;;;;20.50;78.90;;;;;;5077431;28;19947;-54
2023/01/31 05:23:08;;;;;;;;;;;20.50;79.00;;;;;;5077303;28;19915;-54
2023/01/31 05:25:35;;;;;;;;;;;20.50;78.90;;;;;;5077301;28;19939;-50
2023/01/31 05:28:00;;;;;;;;;;;20.50;79.00;;;;;;5076977;28;19905;-54
2023/01/31 05:30:26;;;;;;;;;;;20.40;79.10;;;;;;5077467;28;20011;-55
2023/01/31 05:32:51;;;;;;;;;;;20.40;79.10;;;;;;5077225;28;19911;-55
2023/01/31 05:35:17;;;;;;;;;;;20.30;79.10;;;;;;5059157;28;20199;-54
2023/01/31 05:37:43;;;;;;;;;;;20.40;79.30;;;;;;5076309;28;19939;-51
2023/01/31 05:40:13;;;;;;;;;;;20.30;79.50;;;;;;5077155;28;19904;-52
2023/01/31 05:42:38;;;;;;;;;;;20.10;80.10;;;;;;5077318;28;19905;-52
2023/01/31 05:45:04;;;;;;;;;;;20.10;79.50;;;;;;5059311;28;19905;-55
2023/01/31 05:47:30;;;;;;;;;;;20.00;79.90;;;;;;5076877;28;19905;-56
2023/01/31 05:49:55;;;;;;;;;;;20.00;80.10;;;;;;5076917;28;19927;-55
2023/01/31 05:52:21;;;;;;;;;;;19.90;80.20;;;;;;5076875;28;19930;-52
2023/01/31 05:54:46;;;;;;;;;;;19.90;80.30;;;;;;5076749;28;19946;-53
2023/01/31 05:57:14;;;;;;;;;;;19.80;80.50;;;;;;5076559;28;19912;-54
2023/01/31 05:59:39;;;;;;;;;;;19.80;80.50;;;;;;5076674;28;19908;-53
2023/01/31 06:02:05;;;;;;;;;;;19.70;80.80;;;;;;5076651;28;19958;-55
2023/01/31 06:04:30;;;;;;;;;;;19.70;80.70;;;;;;5076583;28;19908;-56
2023/01/31 06:06:56;;;;;;;;;;;19.70;81.10;;;;;;5076460;28;20005;-54
2023/01/31 06:09:22;;;;;;;;;;;19.70;81.20;;;;;;5075779;28;19904;-53
2023/01/31 06:11:47;;;;;;;;;;;19.70;80.90;;;;;;5076435;28;19908;-55
2023/01/31 06:14:12;;;;;;;;;;;19.70;81.50;;;;;;5076037;28;19904;-55
2023/01/31 06:16:38;;;;;;;;;;;19.70;80.80;;;;;;5076313;28;19904;-55
2023/01/31 06:19:03;;;;;;;;;;;19.80;80.50;;;;;;5076064;28;19908;-54
2023/01/31 06:21:29;;;;;;;;;;;19.80;80.40;;;;;;5076144;28;19908;-51
2023/01/31 06:23:54;;;;;;;;;;;19.90;80.10;;;;;;5058272;28;19904;-55
2023/01/31 06:26:20;;;;;;;;;;;20.10;79.90;;;;;;5075837;28;20329;-55
2023/01/31 06:28:45;;;;;;;;;;;20.10;79.60;;;;;;5076359;28;19931;-54
2023/01/31 06:31:11;;;;;;;;;;;20.30;79.10;;;;;;5075777;28;20271;-55
2023/01/31 06:33:37;;;;;;;;;;;20.40;78.60;;;;;;5075828;28;20007;-55
2023/01/31 06:36:03;;;;;;;;;;;20.50;79.10;;;;;;5075132;28;19919;-55
2023/01/31 06:38:28;;;;;;;;;;;20.60;79.10;;;;;;5075647;28;19916;-55
2023/01/31 06:40:54;;;;;;;;;;;20.60;78.80;;;;;;5057790;28;19991;-52
2023/01/31 06:43:19;;;;;;;;;;;20.60;79.00;;;;;;5075360;28;19950;-54
2023/01/31 06:45:45;;;;;;;;;;;20.60;79.10;;;;;;5057736;28;19905;-53
2023/01/31 06:48:10;;;;;;;;;;;20.60;79.10;;;;;;5075344;28;20316;-51
2023/01/31 06:50:36;;;;;;;;;;;20.50;79.20;;;;;;5075079;28;19908;-53
2023/01/31 06:53:02;;;;;;;;;;;20.50;79.20;;;;;;5056049;28;19995;-55
2023/01/31 06:55:27;;;;;;;;;;;20.40;78.80;;;;;;5075677;28;19912;-55
2023/01/31 06:57:54;;;;;;;;;;;20.40;79.30;;;;;;5074984;28;19959;-51
2023/01/31 07:00:20;;;;;;;;;;;20.40;79.40;;;;;;5075457;28;19905;-55
2023/01/31 07:02:46;;;;;;;;;;;20.30;79.40;;;;;;5057289;28;20235;-55
2023/01/31 07:05:12;;;;;;;;;;;20.30;79.50;;;;;;5076878;28;19940;-55
2023/01/31 07:07:37;;;;;;;;;;;20.30;79.50;;;;;;5075162;28;19908;-54
2023/01/31 07:10:03;;;;;;;;;;;20.30;79.60;;;;;;5089595;28;19908;-55
2023/01/31 07:12:28;;;;;;;;;;;20.20;79.70;;;;;;5077792;28;20247;-52
2023/01/31 07:14:54;;;;;;;;;;;20.20;79.80;;;;;;5077043;28;19908;-54
2023/01/31 07:17:22;;;;;;;;;;;20.30;78.60;;;;;;5085625;28;19916;-54
2023/01/31 07:19:48;;;;;;;;;;;20.30;80.10;;;;;;5084648;28;19991;-53
2023/01/31 07:22:13;;;;;;;;;;;20.40;77.00;;;;;;5089139;28;20011;-53
2023/01/31 07:24:39;;;;;;;;;;;20.30;77.70;;;;;;5088332;28;20050;-55
2023/01/31 07:27:04;;;;;;;;;;;20.40;78.70;;;;;;5068231;28;20010;-55
2023/01/31 07:29:30;;;;;;;;;;;20.50;78.60;;;;;;5077155;28;19908;-54
2023/01/31 07:31:56;;;;;;;;;;;20.60;78.70;;;;;;5087573;28;19941;-52
2023/01/31 07:34:22;;;;;;;;;;;20.60;78.20;;;;;;5082051;28;19912;-53
2023/01/31 07:36:48;;;;;;;;;;;20.60;78.40;;;;;;5058352;28;19962;-53
2023/01/31 07:39:13;;;;;;;;;;;20.60;78.40;;;;;;5082080;28;20356;-48
2023/01/31 07:41:39;;;;;;;;;;;20.70;78.40;;;;;;5076361;28;19912;-51
2023/01/31 07:44:07;;;;;;;;;;;20.70;78.60;;;;;;5063961;28;19970;-45
2023/01/31 07:46:35;;;;;;;;;;;20.70;78.40;;;;;;5083130;28;19985;-52
2023/01/31 07:49:01;;;;;;;;;;;20.70;78.50;;;;;;5084635;28;19908;-48
2023/01/31 07:51:27;;;;;;;;;;;20.70;78.70;;;;;;5087129;28;19912;-51
2023/01/31 07:53:52;;;;;;;;;;;20.70;78.80;;;;;;5092349;28;20057;-49
2023/01/31 07:56:19;;;;;;;;;;;20.70;78.70;;;;;;5094744;28;19916;-50
2023/01/31 07:58:45;;;;;;;;;;;20.60;78.80;;;;;;5083589;28;19971;-50
2023/01/31 08:03:59;;;;;;;;;;;20.60;78.80;;;;;;5092420;28;20317;-47
2023/01/31 08:06:26;;;;;;;;;;;20.60;78.90;;;;;;5088366;28;19916;-49
2023/01/31 08:08:51;;;;;;;;;;;20.50;79.10;;;;;;5072874;28;19951;-46
2023/01/31 08:11:17;;;;;;;;;;;20.50;79.00;;;;;;5056179;28;19912;-51
2023/01/31 08:13:42;;;;;;;;;;;20.50;79.00;;;;;;5079838;28;20359;-47
2023/01/31 08:16:10;;;;;;;;;;;20.50;79.00;;;;;;5093993;28;19916;-50
2023/01/31 08:18:36;;;;;;;;;;;20.50;78.90;;;;;;5093763;28;20050;-49
2023/01/31 08:21:02;;;;;;;;;;;20.50;78.90;;;;;;5094233;28;19961;-47
2023/01/31 08:23:27;;;;;;;;;;;20.60;78.60;;;;;;5091688;28;19916;-45
2023/01/31 08:25:58;;;;;;;;;;;20.60;78.60;;;;;;5073834;28;20004;-50
2023/01/31 08:28:23;;;;;;;;;;;20.70;78.70;;;;;;5073901;28;19909;-49
2023/01/31 08:30:49;;;;;;;;;;;20.70;78.70;;;;;;5073532;28;20351;-46
2023/01/31 08:33:14;;;;;;;;;;;20.80;78.60;;;;;;5073735;28;20275;-48
2023/01/31 08:35:40;;;;;;;;;;;20.90;78.70;;;;;;5073854;28;19908;-51
2023/01/31 08:38:05;;;;;;;;;;;20.80;78.70;;;;;;5073908;28;19931;-47
2023/01/31 08:40:31;;;;;;;;;;;20.80;78.70;;;;;;5076082;28;19916;-48
2023/01/31 08:42:57;;;;;;;;;;;20.80;78.90;;;;;;5094184;28;20345;-46
2023/01/31 08:45:22;;;;;;;;;;;20.70;79.00;;;;;;5093921;28;19908;-49
2023/01/31 08:47:52;;;;;;;;;;;20.60;79.20;;;;;;5093839;28;20282;-48
2023/01/31 08:50:17;;;;;;;;;;;20.60;79.20;;;;;;5093676;28;20306;-46
2023/01/31 08:52:43;;;;;;;;;;;20.60;79.30;;;;;;5093566;28;19908;-49
2023/01/31 08:55:12;;;;;;;;;;;20.60;79.40;;;;;;5093561;28;19951;-51
2023/01/31 08:57:39;;;;;;;;;;;20.50;79.40;;;;;;5089675;28;20371;-51
2023/01/31 09:00:05;;;;;;;;;;;20.60;79.20;;;;;;5073483;28;19908;-48
2023/01/31 09:02:31;;;;;;;;;;;20.60;78.80;;;;;;5073353;28;20355;-48
2023/01/31 09:04:56;;;;;;;;;;;20.60;79.50;;;;;;5073399;28;19915;-51
2023/01/31 09:07:22;;;;;;;;;;;20.60;79.40;;;;;;5072216;28;20366;-49
2023/01/31 09:09:48;;;;;;;;;;;20.60;79.90;;;;;;5083633;28;20382;-51
2023/01/31 09:12:13;;;;;;;;;;;20.60;79.30;;;;;;5081159;28;19919;-54
2023/01/31 09:14:39;;;;;;;;;;;20.60;79.60;;;;;;5073771;28;19916;-53
2023/01/31 09:17:06;;;;;;;;;;;20.60;79.50;;;;;;5074114;28;20275;-54
2023/01/31 09:19:32;;;;;;;;;;;20.60;79.40;;;;;;5087054;28;19920;-53
2023/01/31 09:21:57;;;;;;;;;;;20.70;79.50;;;;;;5083177;28;20019;-50
2023/01/31 09:24:23;;;;;;;;;;;20.70;79.50;;;;;;5082914;28;19913;-49
2023/01/31 09:26:48;;;;;;;;;;;20.70;79.40;;;;;;5092651;28;19915;-52
2023/01/31 09:29:14;;;;;;;;;;;20.70;79.40;;;;;;5067817;28;20366;-51
2023/01/31 09:31:39;;;;;;;;;;;20.80;79.30;;;;;;5093915;28;19908;-51
2023/01/31 09:34:05;;;;;;;;;;;20.80;79.10;;;;;;5091755;28;19999;-50
2023/01/31 09:36:30;;;;;;;;;;;20.90;79.10;;;;;;5093280;28;19908;-49
2023/01/31 09:38:56;;;;;;;;;;;20.80;79.80;;;;;;5091671;28;19924;-51
2023/01/31 09:41:33;;;;;;;;;;;20.70;79.20;;;;;;5084264;28;19975;-54
2023/01/31 09:44:10;;;;;;;;;;;20.60;79.60;;;;;;5077116;28;20363;-52
2023/01/31 09:46:38;;;;;;;;;;;20.50;79.90;;;;;;5081973;28;19913;-50
2023/01/31 09:49:06;;;;;;;;;;;20.40;80.30;;;;;;5084278;28;20292;-49
2023/01/31 09:51:36;;;;;;;;;;;20.30;80.50;;;;;;5076493;28;19909;-48
2023/01/31 09:54:06;;;;;;;;;;;20.20;80.70;;;;;;5088467;28;20390;-51
2023/01/31 09:56:39;;;;;;;;;;;20.20;80.80;;;;;;5088084;28;20324;-53
2023/01/31 09:59:19;;;;;;;;;;;20.10;80.90;;;;;;5093329;28;20027;-54
2023/01/31 10:01:51;;;;;;;;;;;20.20;80.50;;;;;;5096851;28;20248;-55
2023/01/31 10:04:16;;;;;;;;;;;20.30;80.20;;;;;;5086019;28;19919;-51
2023/01/31 10:06:45;;;;;;;;;;;20.30;80.20;;;;;;5083452;28;19987;-53
2023/01/31 10:09:15;;;;;;;;;;;20.40;80.20;;;;;;5076418;28;19915;-53
2023/01/31 10:11:53;;;;;;;;;;;20.50;80.00;;;;;;5058454;28;19987;-52
2023/01/31 10:14:24;;;;;;;;;;;20.60;80.00;;;;;;5076369;28;19931;-49
2023/01/31 10:17:07;;;;;;;;;;;20.70;79.50;;;;;;5076396;28;19919;-54
2023/01/31 10:19:53;;;;;;;;;;;20.70;79.50;;;;;;5076307;28;20325;-50
2023/01/31 10:22:27;;;;;;;;;;;20.80;79.30;;;;;;5051897;28;19931;-53
2023/01/31 10:25:02;;;;;;;;;;;20.90;79.40;;;;;;5058366;28;19958;-54
2023/01/31 10:27:50;;;;;;;;;;;20.90;78.90;;;;;;5075812;28;20417;-54
2023/01/31 10:30:18;;;;;;;;;;;20.80;79.30;;;;;;5070467;28;20323;-50
2023/01/31 10:32:47;;;;;;;;;;;20.70;79.60;;;;;;5075639;28;19912;-52
2023/01/31 10:35:16;;;;;;;;;;;20.60;78.90;;;;;;5075979;28;19909;-51
2023/01/31 10:37:53;;;;;;;;;;;20.50;79.90;;;;;;5075497;28;19920;-50
2023/01/31 10:40:24;;;;;;;;;;;20.50;80.00;;;;;;5076065;28;20275;-51
2023/01/31 10:42:52;;;;;;;;;;;20.50;80.10;;;;;;5075972;28;19908;-50
2023/01/31 10:45:19;;;;;;;;;;;20.60;79.80;;;;;;5075534;28;19909;-50
2023/01/31 10:47:52;;;;;;;;;;;20.60;79.60;;;;;;5080530;28;19919;-50
2023/01/31 10:50:38;;;;;;;;;;;20.80;79.30;;;;;;5095663;28;19909;-52
2023/01/31 10:53:26;;;;;;;;;;;20.90;78.90;;;;;;5095266;28;19908;-52
2023/01/31 10:55:51;;;;;;;;;;;21.00;79.00;;;;;;5095631;28;19955;-51
2023/01/31 10:58:18;;;;;;;;;;;21.00;78.70;;;;;;5078062;28;19962;-52
2023/01/31 11:00:46;;;;;;;;;;;21.00;78.60;;;;;;5075212;28;19909;-54
2023/01/31 11:03:12;;;;;;;;;;;21.00;78.60;;;;;;5075218;28;19915;-51
2023/01/31 11:05:42;;;;;;;;;;;21.00;78.90;;;;;;5075450;28;20386;-54
2023/01/31 11:08:27;;;;;;;;;;;20.90;78.80;;;;;;5074860;28;19912;-51
2023/01/31 11:10:53;;;;;;;;;;;20.90;79.00;;;;;;5075505;28;19916;-51
2023/01/31 11:13:19;;;;;;;;;;;20.80;79.10;;;;;;5075699;28;20327;-53
2023/01/31 11:15:47;;;;;;;;;;;20.80;79.30;;;;;;5095235;28;19958;-54
2023/01/31 11:18:33;;;;;;;;;;;20.80;79.30;;;;;;5095350;28;19916;-50
2023/01/31 11:21:00;;;;;;;;;;;20.70;79.40;;;;;;5095355;28;19971;-52
2023/01/31 11:23:28;;;;;;;;;;;20.70;79.70;;;;;;5095281;28;19908;-52
2023/01/31 11:25:54;;;;;;;;;;;20.60;79.70;;;;;;5095142;28;19908;-53
2023/01/31 11:28:39;;;;;;;;;;;20.60;79.60;;;;;;5094978;28;19915;-56
2023/01/31 11:31:07;;;;;;;;;;;20.60;79.60;;;;;;5093645;28;19908;-52
2023/01/31 11:33:51;;;;;;;;;;;20.70;79.50;;;;;;5094942;28;19908;-53
2023/01/31 11:36:22;;;;;;;;;;;20.70;79.40;;;;;;5094801;28;19931;-54
2023/01/31 11:38:48;;;;;;;;;;;20.80;79.10;;;;;;5094571;28;19924;-53
2023/01/31 11:41:25;;;;;;;;;;;20.90;78.90;;;;;;5094885;28;19969;-54
2023/01/31 11:44:04;;;;;;;;;;;21.00;78.70;;;;;;5094730;28;19999;-54
2023/01/31 11:46:41;;;;;;;;;;;21.00;78.50;;;;;;5095083;28;19970;-54
2023/01/31 11:49:11;;;;;;;;;;;21.00;78.60;;;;;;5078344;28;20271;-55
2023/01/31 11:51:37;;;;;;;;;;;21.10;78.60;;;;;;5074660;28;19908;-53
2023/01/31 11:54:03;;;;;;;;;;;21.00;78.70;;;;;;5074207;28;19915;-53
2023/01/31 11:56:32;;;;;;;;;;;21.00;78.80;;;;;;5056233;28;19916;-52
2023/01/31 11:59:04;;;;;;;;;;;21.00;78.90;;;;;;5074297;28;19920;-52
2023/01/31 12:01:30;;;;;;;;;;;21.00;78.90;;;;;;5054332;28;20314;-52
2023/01/31 12:03:57;;;;;;;;;;;21.00;78.80;;;;;;5054056;28;19909;-54
2023/01/31 12:06:25;;;;;;;;;;;21.00;78.70;;;;;;5073534;28;19909;-53
2023/01/31 12:08:55;;;;;;;;;;;21.00;78.90;;;;;;5055752;28;19908;-48
2023/01/31 12:11:30;;;;;;;;;;;21.00;78.80;;;;;;5074244;28;19916;-50
2023/01/31 12:14:05;;;;;;;;;;;21.00;79.00;;;;;;5074079;28;19915;-49
2023/01/31 12:16:31;;;;;;;;;;;21.00;78.90;;;;;;5074079;28;20344;-51
2023/01/31 12:19:04;;;;;;;;;;;20.90;78.90;;;;;;5073648;28;19947;-47
2023/01/31 12:21:53;;;;;;;;;;;20.90;79.00;;;;;;5074523;28;19916;-50
2023/01/31 12:24:21;;;;;;;;;;;20.90;79.00;;;;;;5070143;28;19916;-51
2023/01/31 12:26:53;;;;;;;;;;;20.90;78.10;;;;;;5094312;28;19908;-50
2023/01/31 12:29:26;;;;;;;;;;;20.80;79.00;;;;;;5087090;28;19916;-51
2023/01/31 12:32:06;;;;;;;;;;;20.80;79.10;;;;;;5088881;28;20272;-50
2023/01/31 12:34:37;;;;;;;;;;;20.80;79.10;;;;;;5093557;28;19914;-49
2023/01/31 12:37:06;;;;;;;;;;;20.90;78.80;;;;;;5083148;28;20004;-49
2023/01/31 12:39:46;;;;;;;;;;;20.90;78.80;;;;;;5085891;28;19919;-47
2023/01/31 12:42:17;;;;;;;;;;;21.00;79.00;;;;;;5092114;28;19912;-49
2023/01/31 12:45:05;;;;;;;;;;;21.00;78.60;;;;;;5070948;28;19912;-50
2023/01/31 12:47:52;;;;;;;;;;;21.00;78.40;;;;;;5077521;28;19912;-50
2023/01/31 12:50:34;;;;;;;;;;;21.20;78.20;;;;;;5073259;28;19924;-48
2023/01/31 12:53:12;;;;;;;;;;;21.20;78.10;;;;;;5072466;28;19908;-48
2023/01/31 12:56:13;;;;;;;;;;;21.10;78.20;;;;;;5074005;28;19912;-46
2023/01/31 12:58:45;;;;;;;;;;;21.00;78.30;;;;;;5010343;28;19976;-50
2023/01/31 13:01:13;;;;;;;;;;;20.90;78.40;;;;;;5052588;28;19919;-49
2023/01/31 13:03:39;;;;;;;;;;;20.80;78.60;;;;;;5091174;28;19931;-48
2023/01/31 13:06:08;;;;;;;;;;;20.70;79.10;;;;;;5081750;28;20235;-49
2023/01/31 13:08:35;;;;;;;;;;;20.70;79.00;;;;;;5088361;28;19911;-49
2023/01/31 13:11:03;;;;;;;;;;;20.70;79.00;;;;;;5080669;28;20307;-49
2023/01/31 13:13:34;;;;;;;;;;;20.80;78.90;;;;;;5070158;28;20024;-48
2023/01/31 13:16:04;;;;;;;;;;;20.80;78.70;;;;;;5073124;28;19915;-51
2023/01/31 13:18:32;;;;;;;;;;;20.80;78.90;;;;;;5073298;28;19917;-50
2023/01/31 13:21:00;;;;;;;;;;;20.70;79.10;;;;;;5075461;28;19965;-52
2023/01/31 13:23:32;;;;;;;;;;;20.60;79.30;;;;;;5077411;28;19909;-51
2023/01/31 13:26:10;;;;;;;;;;;20.60;79.40;;;;;;5076853;28;19908;-48
2023/01/31 13:28:40;;;;;;;;;;;20.40;79.70;;;;;;5076989;28;19925;-49
2023/01/31 13:31:13;;;;;;;;;;;20.40;79.80;;;;;;5078081;28;19956;-48
2023/01/31 13:33:42;;;;;;;;;;;20.40;79.90;;;;;;5077384;28;19955;-50
2023/01/31 13:36:26;;;;;;;;;;;20.50;79.90;;;;;;5077103;28;19908;-49
2023/01/31 13:38:52;;;;;;;;;;;20.50;79.80;;;;;;5058833;28;19925;-54
2023/01/31 13:41:18;;;;;;;;;;;20.50;79.80;;;;;;5076834;28;19957;-48
2023/01/31 13:43:43;;;;;;;;;;;20.60;79.80;;;;;;5076380;28;19909;-55
2023/01/31 13:46:10;;;;;;;;;;;20.60;79.60;;;;;;5077246;28;19908;-51
2023/01/31 13:48:39;;;;;;;;;;;20.60;79.30;;;;;;5096897;28;19915;-53
2023/01/31 13:51:10;;;;;;;;;;;20.70;79.30;;;;;;5096671;28;19946;-54
2023/01/31 13:53:42;;;;;;;;;;;20.70;79.20;;;;;;5096652;28;19954;-49
2023/01/31 13:56:09;;;;;;;;;;;20.70;79.20;;;;;;5097226;28;19938;-52
2023/01/31 13:58:35;;;;;;;;;;;20.80;79.10;;;;;;5096395;28;19957;-50
2023/01/31 14:01:06;;;;;;;;;;;20.80;79.10;;;;;;5096637;28;19999;-49
2023/01/31 14:03:51;;;;;;;;;;;20.90;78.90;;;;;;5093612;28;19908;-49
2023/01/31 14:06:17;;;;;;;;;;;21.00;79.00;;;;;;5075991;28;19986;-54
2023/01/31 14:08:51;;;;;;;;;;;21.00;78.80;;;;;;5076343;28;19916;-51
2023/01/31 14:11:16;;;;;;;;;;;21.00;78.90;;;;;;5076409;28;19913;-51
2023/01/31 14:13:43;;;;;;;;;;;21.00;78.80;;;;;;5076287;28;19986;-54
2023/01/31 14:16:27;;;;;;;;;;;21.00;79.00;;;;;;5075891;28;19912;-52
2023/01/31 14:18:53;;;;;;;;;;;21.00;78.90;;;;;;5075910;28;19916;-51
2023/01/31 14:21:27;;;;;;;;;;;21.00;79.10;;;;;;5085092;28;19909;-51
2023/01/31 14:23:53;;;;;;;;;;;21.00;79.10;;;;;;5096642;28;20319;-49
2023/01/31 14:26:50;;;;;;;;;;;21.00;79.10;;;;;;5096249;28;19955;-53
2023/01/31 14:29:20;;;;;;;;;;;21.00;79.10;;;;;;5096041;28;19908;-52